createdAt,value
2022-10-30T00:00:01.513Z,11.64
2022-10-30T00:03:04.292Z,11.60
2022-10-30T00:06:06.851Z,11.53
2022-10-30T00:09:08.902Z,11.48
2022-10-30T00:12:10.698Z,11.44
2022-10-30T00:15:14.717Z,11.39
2022-10-30T00:18:16.656Z,11.32
2022-10-30T00:21:18.509Z,11.25
2022-10-30T00:24:20.493Z,11.19
2022-10-30T00:27:22.429Z,11.09
2022-10-30T00:30:24.191Z,10.96
2022-10-30T00:33:26.324Z,10.82
2022-10-30T00:36:27.932Z,10.68
2022-10-30T00:39:29.697Z,10.60
2022-10-30T00:42:32.021Z,10.59
2022-10-30T00:45:33.762Z,10.58
2022-10-30T00:48:36.072Z,10.54
2022-10-30T00:51:39.460Z,10.55
2022-10-30T00:54:41.102Z,10.55
2022-10-30T00:57:43.056Z,10.49
2022-10-30T01:00:52.038Z,10.41
2022-10-30T01:03:57.123Z,10.38
2022-10-30T01:07:00.235Z,10.36
2022-10-30T01:10:01.931Z,10.30
2022-10-30T01:13:03.878Z,10.20
2022-10-30T01:16:34.839Z,10.20
2022-10-30T01:20:04.621Z,10.22
2022-10-30T01:23:47.710Z,10.24
2022-10-30T01:27:14.367Z,10.16
2022-10-30T01:30:42.247Z,10.01
2022-10-30T01:34:22.385Z,10.00
2022-10-30T01:37:46.309Z,10.05
2022-10-30T01:40:48.064Z,10.08
2022-10-30T01:43:53.684Z,10.07
2022-10-30T01:47:00.681Z,10.14
2022-10-30T01:50:11.488Z,10.24
2022-10-30T01:53:22.943Z,10.29
2022-10-30T01:56:51.052Z,10.32
2022-10-30T02:00:04.208Z,10.29
2022-10-30T02:03:06.342Z,10.35
2022-10-30T02:06:08.136Z,10.35
2022-10-30T02:09:09.892Z,10.34
2022-10-30T02:12:11.711Z,10.34
2022-10-30T02:15:13.406Z,10.38
2022-10-30T02:18:15.230Z,10.42
2022-10-30T02:21:17.074Z,10.45
2022-10-30T02:24:19.747Z,10.46
2022-10-30T02:27:21.404Z,10.44
2022-10-30T02:30:23.790Z,10.43
2022-10-30T02:33:28.772Z,10.41
2022-10-30T02:36:30.656Z,10.37
2022-10-30T02:39:32.460Z,10.32
2022-10-30T02:42:35.082Z,10.29
2022-10-30T02:45:36.925Z,10.30
2022-10-30T02:48:38.671Z,10.30
2022-10-30T02:51:40.281Z,10.22
2022-10-30T02:54:42.033Z,10.17
2022-10-30T02:57:43.751Z,10.13
2022-10-30T03:00:45.738Z,10.10
2022-10-30T03:03:47.571Z,10.05
2022-10-30T03:06:49.303Z,10.00
2022-10-30T03:09:52.238Z,9.95
2022-10-30T03:12:53.969Z,9.89
2022-10-30T03:16:10.755Z,9.82
2022-10-30T03:19:12.449Z,9.76
2022-10-30T03:22:14.227Z,9.75
2022-10-30T03:25:16.066Z,9.76
2022-10-30T03:28:17.810Z,9.73
2022-10-30T03:31:19.468Z,9.71
2022-10-30T03:34:21.123Z,9.72
2022-10-30T03:37:22.786Z,9.74
2022-10-30T03:40:24.601Z,9.72
2022-10-30T03:43:26.476Z,9.69
2022-10-30T03:46:28.163Z,9.67
2022-10-30T03:49:29.868Z,9.65
2022-10-30T03:52:31.758Z,9.63
2022-10-30T03:55:36.551Z,9.59
2022-10-30T03:58:38.298Z,9.51
2022-10-30T04:01:40.113Z,9.44
2022-10-30T04:04:42.081Z,9.44
2022-10-30T04:07:43.788Z,9.41
2022-10-30T04:10:47.433Z,9.27
2022-10-30T04:13:49.346Z,9.21
2022-10-30T04:16:51.004Z,9.21
2022-10-30T04:19:52.728Z,9.19
2022-10-30T04:22:58.880Z,9.20
2022-10-30T04:26:02.141Z,9.22
2022-10-30T04:29:03.911Z,9.24
2022-10-30T04:35:12.694Z,9.25
2022-10-30T04:38:15.380Z,9.28
2022-10-30T04:41:17.784Z,9.23
2022-10-30T04:44:19.470Z,9.11
2022-10-30T04:47:21.356Z,8.90
2022-10-30T04:50:23.112Z,8.87
2022-10-30T04:53:25.852Z,8.84
2022-10-30T04:56:27.626Z,8.81
2022-10-30T04:59:29.401Z,8.77
2022-10-30T05:02:31.289Z,8.72
2022-10-30T05:05:33.751Z,8.69
2022-10-30T05:08:35.353Z,8.69
2022-10-30T05:11:37.396Z,8.67
2022-10-30T05:14:39.277Z,8.67
2022-10-30T05:17:41.027Z,8.72
2022-10-30T05:20:42.732Z,8.75
2022-10-30T05:23:44.477Z,8.80
2022-10-30T05:26:46.701Z,8.82
2022-10-30T05:29:48.537Z,8.85
2022-10-30T05:32:50.232Z,8.89
2022-10-30T05:35:51.908Z,8.88
2022-10-30T05:38:53.647Z,8.91
2022-10-30T05:41:55.454Z,8.95
2022-10-30T05:45:01.668Z,9.02
2022-10-30T05:48:06.246Z,9.04
2022-10-30T05:51:08.917Z,9.10
2022-10-30T05:54:10.732Z,9.22
2022-10-30T05:57:12.571Z,9.37
2022-10-30T06:00:14.941Z,9.55
2022-10-30T06:03:17.707Z,9.72
2022-10-30T06:06:20.421Z,9.87
2022-10-30T06:09:22.859Z,9.97
2022-10-30T06:12:24.601Z,10.05
2022-10-30T06:15:26.955Z,10.12
2022-10-30T06:18:28.669Z,10.26
2022-10-30T06:21:30.480Z,10.36
2022-10-30T06:24:32.178Z,10.56
2022-10-30T06:27:37.062Z,10.70
2022-10-30T06:30:38.874Z,10.86
2022-10-30T06:33:40.631Z,11.05
2022-10-30T06:36:42.737Z,11.18
2022-10-30T06:39:44.472Z,11.24
2022-10-30T06:42:47.511Z,11.33
2022-10-30T06:45:49.959Z,11.40
2022-10-30T06:48:51.744Z,11.50
2022-10-30T06:51:53.528Z,11.50
2022-10-30T06:54:55.244Z,11.57
2022-10-30T06:57:57.856Z,11.71
2022-10-30T07:01:01.223Z,11.82
2022-10-30T07:04:02.932Z,11.96
2022-10-30T07:07:04.993Z,12.05
2022-10-30T07:10:07.104Z,12.15
2022-10-30T07:13:09.124Z,12.23
2022-10-30T07:16:11.041Z,12.37
2022-10-30T07:19:12.757Z,12.30
2022-10-30T07:22:14.406Z,12.18
2022-10-30T07:25:16.104Z,12.13
2022-10-30T07:28:17.997Z,12.11
2022-10-30T07:31:29.030Z,12.12
2022-10-30T07:34:41.943Z,12.17
2022-10-30T07:37:43.715Z,12.19
2022-10-30T07:40:53.062Z,12.23
2022-10-30T07:43:54.728Z,12.33
2022-10-30T07:46:56.382Z,12.42
2022-10-30T07:49:58.085Z,12.54
2022-10-30T07:52:59.948Z,12.66
2022-10-30T07:56:01.651Z,12.72
2022-10-30T07:59:03.523Z,12.75
2022-10-30T08:02:05.404Z,12.87
2022-10-30T08:05:07.911Z,13.17
2022-10-30T08:08:09.790Z,13.46
2022-10-30T08:11:11.579Z,13.81
2022-10-30T08:14:13.331Z,14.09
2022-10-30T08:17:15.366Z,14.33
2022-10-30T08:20:19.897Z,14.67
2022-10-30T08:23:21.998Z,15.20
2022-10-30T08:26:23.744Z,15.68
2022-10-30T08:29:25.655Z,16.01
2022-10-30T08:32:27.368Z,16.30
2022-10-30T08:35:29.549Z,16.64
2022-10-30T08:38:31.339Z,16.88
2022-10-30T08:41:32.976Z,17.29
2022-10-30T08:44:34.666Z,17.60
2022-10-30T08:47:36.721Z,18.01
2022-10-30T08:50:38.919Z,18.24
2022-10-30T08:53:40.597Z,18.34
2022-10-30T08:56:42.272Z,18.54
2022-10-30T08:59:44.226Z,18.96
2022-10-30T09:02:46.244Z,19.37
2022-10-30T09:05:48.264Z,19.66
2022-10-30T09:08:49.868Z,19.70
2022-10-30T09:11:52.662Z,19.65
2022-10-30T09:14:54.490Z,19.42
2022-10-30T09:18:01.573Z,19.25
2022-10-30T09:21:05.165Z,19.23
2022-10-30T09:24:07.527Z,19.17
2022-10-30T09:27:09.439Z,19.20
2022-10-30T09:30:12.538Z,19.36
2022-10-30T09:33:14.234Z,19.47
2022-10-30T09:36:18.150Z,19.61
2022-10-30T09:39:23.258Z,19.64
2022-10-30T09:42:37.778Z,20.01
2022-10-30T09:45:56.820Z,20.44
2022-10-30T09:52:37.367Z,21.11
2022-10-30T09:55:51.479Z,21.44
2022-10-30T09:59:06.417Z,21.86
2022-10-30T10:02:11.356Z,22.24
2022-10-30T10:05:23.813Z,22.49
2022-10-30T10:08:34.401Z,22.65
2022-10-30T10:11:36.914Z,23.04
2022-10-30T10:14:42.490Z,23.59
2022-10-30T10:17:47.109Z,24.06
2022-10-30T10:20:52.159Z,24.26
2022-10-30T10:24:00.347Z,24.16
2022-10-30T10:27:43.964Z,24.47
2022-10-30T10:31:14.629Z,24.98
2022-10-30T10:34:22.385Z,25.19
2022-10-30T10:37:46.706Z,25.19
2022-10-30T10:40:59.233Z,25.11
2022-10-30T10:44:07.978Z,25.63
2022-10-30T10:47:32.421Z,25.64
2022-10-30T10:50:52.620Z,24.57
2022-10-30T10:53:58.891Z,24.04
2022-10-30T10:57:00.499Z,23.84
2022-10-30T11:00:05.612Z,23.78
2022-10-30T11:03:12.313Z,24.22
2022-10-30T11:06:17.135Z,24.75
2022-10-30T11:09:23.749Z,24.60
2022-10-30T11:12:32.295Z,24.44
2022-10-30T11:15:55.398Z,24.05
2022-10-30T11:19:01.201Z,23.66
2022-10-30T11:22:03.860Z,23.91
2022-10-30T11:25:28.586Z,23.92
2022-10-30T11:28:41.564Z,23.64
2022-10-30T11:31:44.688Z,23.34
2022-10-30T11:34:46.455Z,22.84
2022-10-30T11:37:56.397Z,22.36
2022-10-30T11:41:02.038Z,22.08
2022-10-30T11:44:05.233Z,21.90
2022-10-30T11:47:08.067Z,21.69
2022-10-30T11:50:22.504Z,21.63
2022-10-30T11:53:38.632Z,21.47
2022-10-30T11:56:47.046Z,21.29
2022-10-30T11:59:51.835Z,21.08
2022-10-30T12:02:56.979Z,20.93
2022-10-30T12:06:19.374Z,20.86
2022-10-30T12:09:22.635Z,20.69
2022-10-30T12:12:34.395Z,20.66
2022-10-30T12:15:40.341Z,20.65
2022-10-30T12:18:43.855Z,20.67
2022-10-30T12:21:48.036Z,20.57
2022-10-30T12:24:49.776Z,20.57
2022-10-30T12:27:58.881Z,20.63
2022-10-30T12:31:03.695Z,20.74
2022-10-30T12:34:31.949Z,20.87
2022-10-30T12:37:39.077Z,21.08
2022-10-30T12:40:59.063Z,21.23
2022-10-30T12:44:09.040Z,21.30
2022-10-30T12:47:23.516Z,21.21
2022-10-30T12:50:35.543Z,21.05
2022-10-30T12:54:02.786Z,20.79
2022-10-30T12:57:11.504Z,20.56
2022-10-30T13:00:16.271Z,20.47
2022-10-30T13:03:40.473Z,20.45
2022-10-30T13:06:47.964Z,20.46
2022-10-30T13:10:14.818Z,20.57
2022-10-30T13:13:23.885Z,20.66
2022-10-30T13:16:30.428Z,20.76
2022-10-30T13:19:32.349Z,20.90
2022-10-30T13:22:50.193Z,21.05
2022-10-30T13:26:28.276Z,21.14
2022-10-30T13:29:51.285Z,21.06
2022-10-30T13:33:12.264Z,20.87
2022-10-30T13:36:33.356Z,20.70
2022-10-30T13:39:47.974Z,20.59
2022-10-30T13:43:17.957Z,20.51
2022-10-30T13:46:38.604Z,20.46
2022-10-30T13:49:49.665Z,20.36
2022-10-30T13:52:55.627Z,20.32
2022-10-30T13:55:57.859Z,20.26
2022-10-30T13:59:38.935Z,20.16
2022-10-30T14:02:40.804Z,20.00
2022-10-30T14:05:47.997Z,19.84
2022-10-30T14:09:21.058Z,19.67
2022-10-30T14:12:53.390Z,19.49
2022-10-30T14:16:06.608Z,19.37
2022-10-30T14:19:17.497Z,19.32
2022-10-30T14:22:23.649Z,19.28
2022-10-30T14:25:25.313Z,19.24
2022-10-30T14:28:27.089Z,19.16
2022-10-30T14:31:36.278Z,18.99
2022-10-30T14:34:46.466Z,18.82
2022-10-30T14:37:48.268Z,18.71
2022-10-30T14:40:53.046Z,18.63
2022-10-30T14:44:11.785Z,18.58
2022-10-30T14:47:51.458Z,18.47
2022-10-30T14:51:24.312Z,18.30
2022-10-30T14:54:46.282Z,18.18
2022-10-30T14:58:16.017Z,18.07
2022-10-30T15:01:28.564Z,17.91
2022-10-30T15:05:05.389Z,17.78
2022-10-30T15:08:23.897Z,17.66
2022-10-30T15:11:51.587Z,17.51
2022-10-30T15:14:58.991Z,17.38
2022-10-30T15:18:07.648Z,17.26
2022-10-30T15:21:20.621Z,17.15
2022-10-30T15:24:32.129Z,17.01
2022-10-30T15:27:35.802Z,16.85
2022-10-30T15:30:40.538Z,16.70
2022-10-30T15:33:45.216Z,16.53
2022-10-30T15:36:46.853Z,16.36
2022-10-30T15:39:48.802Z,16.20
2022-10-30T15:42:51.361Z,16.02
2022-10-30T15:45:55.105Z,15.80
2022-10-30T15:48:56.766Z,15.67
2022-10-30T15:51:59.626Z,15.57
2022-10-30T15:55:10.159Z,15.44
2022-10-30T15:58:16.444Z,15.29
2022-10-30T16:01:41.328Z,15.13
2022-10-30T16:04:43.167Z,14.99
2022-10-30T16:07:45.620Z,14.90
2022-10-30T16:10:47.670Z,14.82
2022-10-30T16:13:50.115Z,14.58
2022-10-30T16:16:52.158Z,14.37
2022-10-30T16:20:01.584Z,14.27
2022-10-30T16:23:04.995Z,14.20
2022-10-30T16:26:07.036Z,14.14
2022-10-30T16:29:14.436Z,14.07
2022-10-30T16:32:19.224Z,14.00
2022-10-30T16:35:23.558Z,13.92
2022-10-30T16:38:28.378Z,13.83
2022-10-30T16:41:30.743Z,13.72
2022-10-30T16:44:34.208Z,13.64
2022-10-30T16:47:37.884Z,13.59
2022-10-30T16:50:39.638Z,13.50
2022-10-30T16:53:47.248Z,13.42
2022-10-30T16:56:51.258Z,13.32
2022-10-30T16:59:53.311Z,13.18
2022-10-30T17:02:56.919Z,13.08
2022-10-30T17:06:04.805Z,13.00
2022-10-30T17:09:21.212Z,12.93
2022-10-30T17:12:29.925Z,12.87
2022-10-30T17:15:32.320Z,12.63
2022-10-30T17:18:34.228Z,12.22
2022-10-30T17:21:41.008Z,11.93
2022-10-30T17:24:42.918Z,11.73
2022-10-30T17:27:47.643Z,11.58
2022-10-30T17:30:49.320Z,11.50
2022-10-30T17:34:14.969Z,11.46
2022-10-30T17:37:16.673Z,11.34
2022-10-30T17:40:19.718Z,11.24
2022-10-30T17:43:23.779Z,11.16
2022-10-30T17:46:25.513Z,11.14
2022-10-30T17:49:32.195Z,11.03
2022-10-30T17:52:34.130Z,10.91
2022-10-30T17:55:36.885Z,10.74
2022-10-30T17:58:38.683Z,10.70
2022-10-30T18:01:40.500Z,10.70
2022-10-30T18:04:42.949Z,10.58
2022-10-30T18:07:45.272Z,10.45
2022-10-30T18:10:47.384Z,10.39
2022-10-30T18:13:50.917Z,10.33
2022-10-30T18:16:55.516Z,10.22
2022-10-30T18:19:57.360Z,10.12
2022-10-30T18:23:00.040Z,10.06
2022-10-30T18:26:02.028Z,9.97
2022-10-30T18:29:04.014Z,9.93
2022-10-30T18:32:09.578Z,9.79
2022-10-30T18:35:14.743Z,9.72
2022-10-30T18:38:17.139Z,9.67
2022-10-30T18:41:29.631Z,9.65
2022-10-30T18:44:31.337Z,9.68
2022-10-30T18:47:33.986Z,9.79
2022-10-30T18:50:36.780Z,9.83
2022-10-30T18:53:38.680Z,9.83
2022-10-30T18:56:40.327Z,9.85
2022-10-30T18:59:42.116Z,9.88
2022-10-30T19:02:43.970Z,9.93
2022-10-30T19:05:48.267Z,9.95
2022-10-30T19:08:50.604Z,9.93
2022-10-30T19:11:52.309Z,9.91
2022-10-30T19:14:54.176Z,9.89
2022-10-30T19:17:56.143Z,9.83
2022-10-30T19:21:04.327Z,9.73
2022-10-30T19:24:13.553Z,9.57
2022-10-30T19:27:15.220Z,9.45
2022-10-30T19:30:18.112Z,9.39
2022-10-30T19:33:21.777Z,9.42
2022-10-30T19:36:42.811Z,9.40
2022-10-30T19:39:44.475Z,9.40
2022-10-30T19:42:46.201Z,9.35
2022-10-30T19:45:51.310Z,9.34
2022-10-30T19:48:57.822Z,9.35
2022-10-30T19:52:00.139Z,9.34
2022-10-30T19:55:01.865Z,9.34
2022-10-30T19:58:05.090Z,9.40
2022-10-30T20:01:06.892Z,9.39
2022-10-30T20:04:08.659Z,9.18
2022-10-30T20:07:10.395Z,9.08
2022-10-30T20:10:17.764Z,9.09
2022-10-30T20:13:20.809Z,9.11
2022-10-30T20:16:22.458Z,9.09
2022-10-30T20:19:31.214Z,8.99
2022-10-30T20:22:33.020Z,8.85
2022-10-30T20:25:34.649Z,8.73
2022-10-30T20:28:39.107Z,8.54
2022-10-30T20:31:40.820Z,8.33
2022-10-30T20:34:42.503Z,8.18
2022-10-30T20:37:56.657Z,8.08
2022-10-30T20:41:01.232Z,8.03
2022-10-30T20:44:02.973Z,8.03
2022-10-30T20:47:04.745Z,8.10
2022-10-30T20:50:06.704Z,8.08
2022-10-30T20:53:12.197Z,8.03
2022-10-30T20:56:13.831Z,7.97
2022-10-30T20:59:16.394Z,7.82
2022-10-30T21:02:18.131Z,7.66
2022-10-30T21:05:42.023Z,7.54
2022-10-30T21:08:41.790Z,7.49
2022-10-30T21:11:43.488Z,7.44
2022-10-30T21:14:45.244Z,7.49
2022-10-30T21:17:47.057Z,7.58
2022-10-30T21:20:48.682Z,7.65
2022-10-30T21:23:54.042Z,7.69
2022-10-30T21:26:55.777Z,7.68
2022-10-30T21:29:57.466Z,7.67
2022-10-30T21:32:59.696Z,7.69
2022-10-30T21:36:12.024Z,7.82
2022-10-30T21:39:14.302Z,7.82
2022-10-30T21:42:16.073Z,7.78
2022-10-30T21:45:17.752Z,7.77
2022-10-30T21:48:19.491Z,7.75
2022-10-30T21:51:23.750Z,7.64
2022-10-30T21:54:25.591Z,7.59
2022-10-30T21:57:28.763Z,7.60
2022-10-30T22:00:30.902Z,7.59
2022-10-30T22:03:33.550Z,7.62
2022-10-30T22:06:41.487Z,7.67
2022-10-30T22:09:43.323Z,7.63
2022-10-30T22:12:44.939Z,7.63
2022-10-30T22:15:53.796Z,7.66
2022-10-30T22:18:56.345Z,7.64
2022-10-30T22:21:58.193Z,7.64
2022-10-30T22:24:59.826Z,7.67
2022-10-30T22:28:01.864Z,7.74
2022-10-30T22:31:17.730Z,7.75
2022-10-30T22:34:19.431Z,7.72
2022-10-30T22:37:21.331Z,7.70
2022-10-30T22:40:23.120Z,7.67
2022-10-30T22:43:24.718Z,7.65
2022-10-30T22:46:28.309Z,7.63
2022-10-30T22:49:29.896Z,7.64
2022-10-30T22:52:31.588Z,7.65
2022-10-30T22:55:33.212Z,7.68
2022-10-30T22:58:34.862Z,7.67
2022-10-30T23:01:37.923Z,7.64
2022-10-30T23:04:39.666Z,7.64
2022-10-30T23:07:41.154Z,7.60
2022-10-30T23:10:42.812Z,7.52
2022-10-30T23:13:45.525Z,7.47
2022-10-30T23:16:47.268Z,7.45
2022-10-30T23:19:48.953Z,7.55
2022-10-30T23:22:50.771Z,7.70
2022-10-30T23:25:52.464Z,7.86
2022-10-30T23:28:55.291Z,7.90
2022-10-30T23:31:57.021Z,7.81
2022-10-30T23:34:58.740Z,7.81
2022-10-30T23:38:00.464Z,7.96
2022-10-30T23:41:02.276Z,8.09
2022-10-30T23:44:06.110Z,8.15
2022-10-30T23:47:08.014Z,8.19
2022-10-30T23:50:11.052Z,8.20
2022-10-30T23:53:12.808Z,8.16
2022-10-30T23:56:14.950Z,8.13
2022-10-30T23:59:16.657Z,8.14
